sensor_id;sensor_type;location;lat;lon;timestamp;pressure;altitude;pressure_sealevel;temperature;humidity
18850;BME280;4989;48.772;9.154;2022-08-18T00:01:13;97727.78;;;20.71;94.16
18850;BME280;4989;48.772;9.154;2022-08-18T00:06:18;97718.03;;;20.87;94.99
18850;BME280;4989;48.772;9.154;2022-08-18T00:11:21;97721.50;;;20.71;95.20
18850;BME280;4989;48.772;9.154;2022-08-18T00:16:25;97709.31;;;20.40;100.00
18850;BME280;4989;48.772;9.154;2022-08-18T00:21:27;97701.47;;;20.27;100.00
18850;BME280;4989;48.772;9.154;2022-08-18T00:26:30;97705.97;;;20.25;100.00
18850;BME280;4989;48.772;9.154;2022-08-18T00:31:38;97707.06;;;20.44;100.00
18850;BME280;4989;48.772;9.154;2022-08-18T00:36:40;97705.88;;;20.56;99.42
18850;BME280;4989;48.772;9.154;2022-08-18T00:41:43;97697.53;;;20.51;98.74
18850;BME280;4989;48.772;9.154;2022-08-18T00:46:45;97692.19;;;20.36;99.41
18850;BME280;4989;48.772;9.154;2022-08-18T00:51:50;97694.56;;;20.54;98.27
18850;BME280;4989;48.772;9.154;2022-08-18T00:56:59;97680.59;;;20.75;94.84
18850;BME280;4989;48.772;9.154;2022-08-18T01:02:07;97673.88;;;21.21;93.92
18850;BME280;4989;48.772;9.154;2022-08-18T01:07:21;97662.56;;;21.75;89.78
18850;BME280;4989;48.772;9.154;2022-08-18T01:12:26;97668.38;;;21.77;86.61
18850;BME280;4989;48.772;9.154;2022-08-18T01:17:48;97664.38;;;21.56;86.64
18850;BME280;4989;48.772;9.154;2022-08-18T01:23:14;97665.88;;;21.57;85.31
18850;BME280;4989;48.772;9.154;2022-08-18T01:28:18;97654.09;;;21.39;86.91
18850;BME280;4989;48.772;9.154;2022-08-18T01:33:21;97635.66;;;21.81;83.81
18850;BME280;4989;48.772;9.154;2022-08-18T01:38:34;97633.72;;;21.42;85.35
18850;BME280;4989;48.772;9.154;2022-08-18T01:43:37;97632.94;;;21.25;86.90
18850;BME280;4989;48.772;9.154;2022-08-18T01:48:40;97617.63;;;21.46;85.25
18850;BME280;4989;48.772;9.154;2022-08-18T01:53:47;97605.81;;;21.40;85.96
18850;BME280;4989;48.772;9.154;2022-08-18T01:58:49;97595.22;;;21.39;85.93
18850;BME280;4989;48.772;9.154;2022-08-18T02:03:58;97598.75;;;21.45;84.96
18850;BME280;4989;48.772;9.154;2022-08-18T02:09:21;97601.97;;;21.71;84.03
18850;BME280;4989;48.772;9.154;2022-08-18T02:14:25;97597.75;;;22.34;83.39
18850;BME280;4989;48.772;9.154;2022-08-18T02:19:42;97607.72;;;23.31;77.20
18850;BME280;4989;48.772;9.154;2022-08-18T02:24:47;97602.97;;;23.51;75.98
18850;BME280;4989;48.772;9.154;2022-08-18T02:29:49;97611.38;;;23.15;75.40
18850;BME280;4989;48.772;9.154;2022-08-18T02:34:52;97601.06;;;23.10;78.46
18850;BME280;4989;48.772;9.154;2022-08-18T02:39:54;97601.53;;;23.69;74.67
18850;BME280;4989;48.772;9.154;2022-08-18T02:44:57;97598.06;;;22.25;80.74
18850;BME280;4989;48.772;9.154;2022-08-18T02:49:59;97593.59;;;22.99;78.86
18850;BME280;4989;48.772;9.154;2022-08-18T02:55:03;97598.88;;;21.98;82.66
18850;BME280;4989;48.772;9.154;2022-08-18T03:00:07;97597.63;;;21.99;85.81
18850;BME280;4989;48.772;9.154;2022-08-18T03:05:12;97602.13;;;22.60;80.88
18850;BME280;4989;48.772;9.154;2022-08-18T03:10:16;97590.97;;;23.43;76.54
18850;BME280;4989;48.772;9.154;2022-08-18T03:15:35;97589.94;;;23.95;73.56
18850;BME280;4989;48.772;9.154;2022-08-18T03:20:37;97590.00;;;22.27;80.04
18850;BME280;4989;48.772;9.154;2022-08-18T03:25:46;97584.38;;;22.80;78.67
18850;BME280;4989;48.772;9.154;2022-08-18T03:30:49;97573.91;;;22.67;79.58
18850;BME280;4989;48.772;9.154;2022-08-18T03:35:52;97592.78;;;22.63;79.75
18850;BME280;4989;48.772;9.154;2022-08-18T03:40:54;97576.94;;;22.16;80.63
18850;BME280;4989;48.772;9.154;2022-08-18T03:46:02;97574.88;;;21.08;87.84
18850;BME280;4989;48.772;9.154;2022-08-18T03:51:12;97578.38;;;20.86;90.76
18850;BME280;4989;48.772;9.154;2022-08-18T03:56:19;97570.84;;;20.75;94.65
18850;BME280;4989;48.772;9.154;2022-08-18T04:01:25;97572.59;;;20.90;94.38
18850;BME280;4989;48.772;9.154;2022-08-18T04:06:39;97566.84;;;20.82;94.16
18850;BME280;4989;48.772;9.154;2022-08-18T04:11:43;97572.72;;;20.30;100.00
18850;BME280;4989;48.772;9.154;2022-08-18T04:16:46;97587.22;;;20.13;100.00
18850;BME280;4989;48.772;9.154;2022-08-18T04:21:51;97579.22;;;20.16;100.00
18850;BME280;4989;48.772;9.154;2022-08-18T04:26:56;97593.56;;;20.25;100.00
18850;BME280;4989;48.772;9.154;2022-08-18T04:32:01;97594.75;;;20.07;100.00
18850;BME280;4989;48.772;9.154;2022-08-18T04:37:07;97589.06;;;20.28;100.00
18850;BME280;4989;48.772;9.154;2022-08-18T04:42:11;97585.41;;;21.21;95.96
18850;BME280;4989;48.772;9.154;2022-08-18T04:47:13;97590.75;;;22.28;86.25
18850;BME280;4989;48.772;9.154;2022-08-18T04:52:16;97605.75;;;22.91;81.01
18850;BME280;4989;48.772;9.154;2022-08-18T04:57:42;97614.75;;;23.32;77.78
18850;BME280;4989;48.772;9.154;2022-08-18T05:02:45;97626.34;;;23.61;75.82
18850;BME280;4989;48.772;9.154;2022-08-18T05:07:48;97629.97;;;23.81;74.47
18850;BME280;4989;48.772;9.154;2022-08-18T05:12:50;97621.41;;;24.03;73.14
18850;BME280;4989;48.772;9.154;2022-08-18T05:17:53;97611.31;;;24.25;71.55
18850;BME280;4989;48.772;9.154;2022-08-18T05:22:55;97609.22;;;24.31;71.60
18850;BME280;4989;48.772;9.154;2022-08-18T05:27:58;97611.00;;;23.85;72.83
18850;BME280;4989;48.772;9.154;2022-08-18T05:33:01;97610.53;;;22.49;79.86
18850;BME280;4989;48.772;9.154;2022-08-18T05:43:22;97597.09;;;24.09;72.78
18850;BME280;4989;48.772;9.154;2022-08-18T05:48:25;97603.66;;;24.31;71.21
18850;BME280;4989;48.772;9.154;2022-08-18T05:53:28;97597.88;;;24.48;69.78
18850;BME280;4989;48.772;9.154;2022-08-18T05:58:52;97593.16;;;24.61;69.68
18850;BME280;4989;48.772;9.154;2022-08-18T06:09:27;97612.66;;;24.75;68.44
18850;BME280;4989;48.772;9.154;2022-08-18T06:14:36;97617.66;;;24.82;68.40
18850;BME280;4989;48.772;9.154;2022-08-18T06:46:52;97624.03;;;24.77;68.02
18850;BME280;4989;48.772;9.154;2022-08-18T06:51:57;97602.72;;;24.98;67.13
18850;BME280;4989;48.772;9.154;2022-08-18T06:56:59;97607.06;;;25.12;66.74
18850;BME280;4989;48.772;9.154;2022-08-18T07:02:25;97610.53;;;25.19;65.90
18850;BME280;4989;48.772;9.154;2022-08-18T07:07:38;97618.13;;;25.18;66.41
18850;BME280;4989;48.772;9.154;2022-08-18T07:12:42;97632.91;;;25.26;65.49
18850;BME280;4989;48.772;9.154;2022-08-18T07:17:49;97642.22;;;25.29;65.72
18850;BME280;4989;48.772;9.154;2022-08-18T07:23:01;97656.78;;;25.35;65.54
18850;BME280;4989;48.772;9.154;2022-08-18T07:33:30;97671.00;;;25.18;65.45
18850;BME280;4989;48.772;9.154;2022-08-18T07:38:49;97674.31;;;24.79;67.78
18850;BME280;4989;48.772;9.154;2022-08-18T07:44:16;97689.63;;;24.85;67.62
18850;BME280;4989;48.772;9.154;2022-08-18T07:49:23;97680.59;;;24.98;67.62
18850;BME280;4989;48.772;9.154;2022-08-18T07:54:38;97675.94;;;25.06;67.05
18850;BME280;4989;48.772;9.154;2022-08-18T08:00:37;97679.16;;;25.10;67.01
18850;BME280;4989;48.772;9.154;2022-08-18T08:10:54;97678.66;;;24.74;68.04
18850;BME280;4989;48.772;9.154;2022-08-18T08:16:08;97684.47;;;24.33;70.00
18850;BME280;4989;48.772;9.154;2022-08-18T08:21:17;97664.38;;;24.83;68.28
18850;BME280;4989;48.772;9.154;2022-08-18T08:37:05;97640.38;;;25.64;64.90
18850;BME280;4989;48.772;9.154;2022-08-18T08:42:37;97641.13;;;25.77;64.21
18850;BME280;4989;48.772;9.154;2022-08-18T08:52:52;97635.25;;;26.61;61.20
18850;BME280;4989;48.772;9.154;2022-08-18T09:19:48;97593.13;;;27.06;59.49
18850;BME280;4989;48.772;9.154;2022-08-18T09:25:28;97592.38;;;27.76;57.97
18850;BME280;4989;48.772;9.154;2022-08-18T09:41:38;97623.91;;;27.56;58.11
18850;BME280;4989;48.772;9.154;2022-08-18T09:46:53;97615.44;;;28.26;56.91
18850;BME280;4989;48.772;9.154;2022-08-18T09:57:31;97635.59;;;27.75;57.77
18850;BME280;4989;48.772;9.154;2022-08-18T10:29:46;97591.09;;;28.42;56.27
18850;BME280;4989;48.772;9.154;2022-08-18T10:34:51;97574.91;;;30.09;53.11
18850;BME280;4989;48.772;9.154;2022-08-18T10:45:33;97535.16;;;32.48;46.45
18850;BME280;4989;48.772;9.154;2022-08-18T11:07:18;97526.63;;;29.55;53.78
18850;BME280;4989;48.772;9.154;2022-08-18T11:12:53;97538.25;;;30.55;50.32
18850;BME280;4989;48.772;9.154;2022-08-18T11:23:16;97525.69;;;28.61;55.89
18850;BME280;4989;48.772;9.154;2022-08-18T11:28:21;97537.16;;;28.34;56.90
18850;BME280;4989;48.772;9.154;2022-08-18T11:33:33;97534.34;;;27.82;58.12
18850;BME280;4989;48.772;9.154;2022-08-18T11:38:38;97538.22;;;28.98;54.55
18850;BME280;4989;48.772;9.154;2022-08-18T11:43:44;97530.66;;;27.30;58.66
18850;BME280;4989;48.772;9.154;2022-08-18T11:48:50;97533.03;;;27.26;59.35
18850;BME280;4989;48.772;9.154;2022-08-18T11:53:58;97511.50;;;27.63;59.29
18850;BME280;4989;48.772;9.154;2022-08-18T12:04:56;97502.22;;;28.87;55.56
18850;BME280;4989;48.772;9.154;2022-08-18T12:10:21;97490.97;;;29.63;52.58
18850;BME280;4989;48.772;9.154;2022-08-18T12:15:45;97495.50;;;28.90;55.40
18850;BME280;4989;48.772;9.154;2022-08-18T12:20:49;97494.94;;;30.01;51.99
18850;BME280;4989;48.772;9.154;2022-08-18T12:25:52;97484.06;;;30.78;49.80
18850;BME280;4989;48.772;9.154;2022-08-18T12:30:55;97488.97;;;30.70;49.50
18850;BME280;4989;48.772;9.154;2022-08-18T12:35:58;97476.72;;;29.84;52.30
18850;BME280;4989;48.772;9.154;2022-08-18T12:41:02;97472.16;;;31.12;48.76
18850;BME280;4989;48.772;9.154;2022-08-18T12:46:05;97482.78;;;29.98;51.65
18850;BME280;4989;48.772;9.154;2022-08-18T12:51:13;97466.44;;;31.02;48.96
18850;BME280;4989;48.772;9.154;2022-08-18T13:01:26;97432.38;;;30.31;50.47
18850;BME280;4989;48.772;9.154;2022-08-18T13:06:30;97437.38;;;29.44;51.88
18850;BME280;4989;48.772;9.154;2022-08-18T13:11:35;97429.28;;;30.69;49.46
18850;BME280;4989;48.772;9.154;2022-08-18T13:16:40;97407.44;;;31.45;47.31
18850;BME280;4989;48.772;9.154;2022-08-18T13:21:56;97394.94;;;30.36;50.06
18850;BME280;4989;48.772;9.154;2022-08-18T13:27:02;97415.06;;;30.92;48.09
18850;BME280;4989;48.772;9.154;2022-08-18T13:32:19;97406.53;;;31.87;47.08
18850;BME280;4989;48.772;9.154;2022-08-18T13:37:22;97411.00;;;31.90;46.30
18850;BME280;4989;48.772;9.154;2022-08-18T13:42:29;97421.13;;;29.50;51.20
18850;BME280;4989;48.772;9.154;2022-08-18T13:47:51;97418.44;;;28.89;52.27
18850;BME280;4989;48.772;9.154;2022-08-18T13:52:55;97405.97;;;29.53;51.58
18850;BME280;4989;48.772;9.154;2022-08-18T13:57:58;97397.50;;;29.84;50.92
18850;BME280;4989;48.772;9.154;2022-08-18T14:03:03;97387.72;;;28.50;53.76
18850;BME280;4989;48.772;9.154;2022-08-18T14:08:06;97386.28;;;29.36;51.93
18850;BME280;4989;48.772;9.154;2022-08-18T14:13:12;97387.56;;;29.35;52.20
18850;BME280;4989;48.772;9.154;2022-08-18T14:18:25;97401.13;;;28.52;53.88
18850;BME280;4989;48.772;9.154;2022-08-18T14:23:32;97392.22;;;27.86;55.63
18850;BME280;4989;48.772;9.154;2022-08-18T14:28:54;97388.78;;;28.86;52.99
18850;BME280;4989;48.772;9.154;2022-08-18T14:33:57;97385.94;;;28.01;54.80
18850;BME280;4989;48.772;9.154;2022-08-18T14:39:05;97396.78;;;28.89;52.90
18850;BME280;4989;48.772;9.154;2022-08-18T14:44:09;97402.94;;;28.11;54.30
18850;BME280;4989;48.772;9.154;2022-08-18T14:49:18;97395.81;;;27.95;55.39
18850;BME280;4989;48.772;9.154;2022-08-18T14:54:33;97396.38;;;28.01;54.97
18850;BME280;4989;48.772;9.154;2022-08-18T14:59:35;97396.00;;;27.53;55.76
18850;BME280;4989;48.772;9.154;2022-08-18T15:04:39;97387.84;;;27.62;55.48
18850;BME280;4989;48.772;9.154;2022-08-18T15:09:59;97394.31;;;27.94;55.24
18850;BME280;4989;48.772;9.154;2022-08-18T15:15:20;97387.06;;;27.47;56.50
18850;BME280;4989;48.772;9.154;2022-08-18T15:20:25;97391.00;;;27.59;56.07
18850;BME280;4989;48.772;9.154;2022-08-18T15:25:31;97397.84;;;27.94;54.87
18850;BME280;4989;48.772;9.154;2022-08-18T15:30:52;97399.97;;;27.21;56.38
18850;BME280;4989;48.772;9.154;2022-08-18T15:36:15;97404.25;;;26.93;57.67
18850;BME280;4989;48.772;9.154;2022-08-18T15:41:36;97388.16;;;26.79;58.10
18850;BME280;4989;48.772;9.154;2022-08-18T15:46:47;97385.50;;;26.73;58.05
18850;BME280;4989;48.772;9.154;2022-08-18T15:51:54;97371.31;;;26.92;57.91
18850;BME280;4989;48.772;9.154;2022-08-18T15:56:58;97376.94;;;27.00;58.63
18850;BME280;4989;48.772;9.154;2022-08-18T16:02:00;97370.06;;;27.01;58.60
18850;BME280;4989;48.772;9.154;2022-08-18T16:07:04;97359.78;;;26.95;58.68
18850;BME280;4989;48.772;9.154;2022-08-18T16:12:09;97361.44;;;26.91;59.61
18850;BME280;4989;48.772;9.154;2022-08-18T16:17:12;97363.09;;;26.86;59.95
18850;BME280;4989;48.772;9.154;2022-08-18T16:22:25;97373.16;;;26.61;60.35
18850;BME280;4989;48.772;9.154;2022-08-18T16:27:27;97366.69;;;26.66;60.94
18850;BME280;4989;48.772;9.154;2022-08-18T16:32:31;97376.81;;;26.56;61.05
18850;BME280;4989;48.772;9.154;2022-08-18T16:37:33;97381.66;;;26.55;60.64
18850;BME280;4989;48.772;9.154;2022-08-18T16:42:36;97388.22;;;26.44;60.95
18850;BME280;4989;48.772;9.154;2022-08-18T16:47:39;97382.72;;;26.31;61.13
18850;BME280;4989;48.772;9.154;2022-08-18T16:52:42;97384.03;;;26.30;60.59
18850;BME280;4989;48.772;9.154;2022-08-18T16:57:45;97383.59;;;26.26;61.67
18850;BME280;4989;48.772;9.154;2022-08-18T17:03:06;97385.16;;;26.14;61.81
18850;BME280;4989;48.772;9.154;2022-08-18T17:08:28;97379.41;;;26.12;62.99
18850;BME280;4989;48.772;9.154;2022-08-18T17:13:32;97385.78;;;26.20;62.91
18850;BME280;4989;48.772;9.154;2022-08-18T17:18:36;97384.53;;;26.08;63.38
18850;BME280;4989;48.772;9.154;2022-08-18T17:23:39;97379.56;;;25.93;64.07
18850;BME280;4989;48.772;9.154;2022-08-18T17:28:51;97384.59;;;25.94;64.66
18850;BME280;4989;48.772;9.154;2022-08-18T17:34:04;97383.41;;;26.03;63.69
18850;BME280;4989;48.772;9.154;2022-08-18T17:39:11;97391.19;;;26.04;64.35
18850;BME280;4989;48.772;9.154;2022-08-18T17:44:17;97392.38;;;26.09;64.44
18850;BME280;4989;48.772;9.154;2022-08-18T17:49:31;97395.69;;;26.08;64.57
18850;BME280;4989;48.772;9.154;2022-08-18T17:55:29;97397.94;;;26.09;64.53
18850;BME280;4989;48.772;9.154;2022-08-18T18:00:34;97400.38;;;26.13;64.52
18850;BME280;4989;48.772;9.154;2022-08-18T18:05:42;97401.25;;;26.08;65.25
18850;BME280;4989;48.772;9.154;2022-08-18T18:10:48;97413.50;;;26.04;65.39
18850;BME280;4989;48.772;9.154;2022-08-18T18:21:25;97409.00;;;26.01;65.91
18850;BME280;4989;48.772;9.154;2022-08-18T18:26:48;97422.06;;;26.07;65.22
18850;BME280;4989;48.772;9.154;2022-08-18T18:31:59;97419.63;;;26.03;65.33
18850;BME280;4989;48.772;9.154;2022-08-18T18:37:27;97433.13;;;25.99;65.36
18850;BME280;4989;48.772;9.154;2022-08-18T18:42:33;97430.13;;;25.97;66.38
18850;BME280;4989;48.772;9.154;2022-08-18T18:53:01;97451.41;;;26.08;66.49
18850;BME280;4989;48.772;9.154;2022-08-18T18:58:57;97450.31;;;26.11;66.65
18850;BME280;4989;48.772;9.154;2022-08-18T19:03:39;97448.44;;;26.06;66.37
18850;BME280;4989;48.772;9.154;2022-08-18T19:08:47;97442.53;;;26.09;65.96
18850;BME280;4989;48.772;9.154;2022-08-18T19:13:54;97458.69;;;26.11;66.06
18850;BME280;4989;48.772;9.154;2022-08-18T19:19:25;97458.69;;;26.11;65.07
18850;BME280;4989;48.772;9.154;2022-08-18T19:24:58;97455.91;;;26.11;65.39
18850;BME280;4989;48.772;9.154;2022-08-18T19:30:07;97463.78;;;26.20;65.13
18850;BME280;4989;48.772;9.154;2022-08-18T19:35:14;97458.22;;;26.20;64.72
18850;BME280;4989;48.772;9.154;2022-08-18T19:40:26;97456.53;;;26.17;64.99
18850;BME280;4989;48.772;9.154;2022-08-18T19:46:07;97465.31;;;26.21;64.21
18850;BME280;4989;48.772;9.154;2022-08-18T20:07:52;97492.91;;;26.32;64.06
18850;BME280;4989;48.772;9.154;2022-08-18T20:13:03;97486.81;;;26.34;63.82
18850;BME280;4989;48.772;9.154;2022-08-18T20:18:22;97486.19;;;26.27;64.49
18850;BME280;4989;48.772;9.154;2022-08-18T20:23:35;97494.25;;;26.18;63.92
18850;BME280;4989;48.772;9.154;2022-08-18T20:28:56;97495.34;;;26.15;65.08
18850;BME280;4989;48.772;9.154;2022-08-18T20:34:07;97509.47;;;26.17;64.98
18850;BME280;4989;48.772;9.154;2022-08-18T20:39:44;97496.41;;;26.12;65.05
18850;BME280;4989;48.772;9.154;2022-08-18T21:00:33;97491.25;;;26.16;64.17
18850;BME280;4989;48.772;9.154;2022-08-18T21:05:40;97496.31;;;26.17;64.04
18850;BME280;4989;48.772;9.154;2022-08-18T21:15:56;97500.06;;;26.07;64.52
18850;BME280;4989;48.772;9.154;2022-08-18T21:20:59;97505.13;;;25.95;64.88
18850;BME280;4989;48.772;9.154;2022-08-18T21:26:06;97528.81;;;25.88;65.60
18850;BME280;4989;48.772;9.154;2022-08-18T21:31:25;97518.00;;;25.85;64.38
18850;BME280;4989;48.772;9.154;2022-08-18T21:36:51;97515.13;;;25.90;64.62
18850;BME280;4989;48.772;9.154;2022-08-18T21:41:56;97512.75;;;25.94;63.84
18850;BME280;4989;48.772;9.154;2022-08-18T21:47:06;97525.19;;;25.93;64.05
18850;BME280;4989;48.772;9.154;2022-08-18T21:52:22;97547.00;;;25.89;65.04
18850;BME280;4989;48.772;9.154;2022-08-18T21:57:28;97546.94;;;25.81;66.48
18850;BME280;4989;48.772;9.154;2022-08-18T22:02:47;97547.53;;;25.74;66.58
18850;BME280;4989;48.772;9.154;2022-08-18T22:07:53;97544.00;;;25.74;66.27
18850;BME280;4989;48.772;9.154;2022-08-18T22:12:56;97562.00;;;25.73;66.86
18850;BME280;4989;48.772;9.154;2022-08-18T22:23:42;97550.88;;;25.73;66.66
18850;BME280;4989;48.772;9.154;2022-08-18T22:34:15;97541.22;;;25.74;66.81
18850;BME280;4989;48.772;9.154;2022-08-18T22:44:40;97542.28;;;25.71;64.52
18850;BME280;4989;48.772;9.154;2022-08-18T22:49:43;97547.75;;;25.63;66.53
18850;BME280;4989;48.772;9.154;2022-08-18T22:54:46;97556.00;;;25.69;65.72
18850;BME280;4989;48.772;9.154;2022-08-18T22:59:52;97556.31;;;25.65;65.73
18850;BME280;4989;48.772;9.154;2022-08-18T23:04:58;97557.50;;;25.70;65.65
18850;BME280;4989;48.772;9.154;2022-08-18T23:10:04;97570.47;;;25.67;64.64
18850;BME280;4989;48.772;9.154;2022-08-18T23:15:16;97571.56;;;25.19;63.65
18850;BME280;4989;48.772;9.154;2022-08-18T23:20:19;97572.25;;;25.38;66.81
18850;BME280;4989;48.772;9.154;2022-08-18T23:25:27;97567.97;;;25.50;65.37
18850;BME280;4989;48.772;9.154;2022-08-18T23:30:30;97561.78;;;25.57;65.80
18850;BME280;4989;48.772;9.154;2022-08-18T23:35:33;97561.34;;;25.53;65.17
18850;BME280;4989;48.772;9.154;2022-08-18T23:40:36;97567.09;;;25.29;64.94
18850;BME280;4989;48.772;9.154;2022-08-18T23:45:41;97562.00;;;25.46;64.82
18850;BME280;4989;48.772;9.154;2022-08-18T23:50:49;97547.97;;;25.52;66.43
18850;BME280;4989;48.772;9.154;2022-08-18T23:55:51;97547.66;;;25.42;66.86
